sensor_id;sensor_type;location;lat;lon;timestamp;pressure;altitude;pressure_sealevel;temperature;humidity
50268;BME280;36153;50.960;6.220;2023-02-28T00:00:39;101930.50;;;3.46;52.75
50268;BME280;36153;50.960;6.220;2023-02-28T00:03:40;101925.25;;;3.44;52.40
50268;BME280;36153;50.960;6.220;2023-02-28T00:06:42;101924.44;;;3.45;52.37
50268;BME280;36153;50.960;6.220;2023-02-28T00:09:43;101927.81;;;3.44;52.38
50268;BME280;36153;50.960;6.220;2023-02-28T00:12:45;101925.53;;;3.35;52.57
50268;BME280;36153;50.960;6.220;2023-02-28T00:15:46;101923.09;;;3.23;52.70
50268;BME280;36153;50.960;6.220;2023-02-28T00:18:49;101923.78;;;3.21;52.89
50268;BME280;36153;50.960;6.220;2023-02-28T00:21:50;101931.78;;;3.25;53.19
50268;BME280;36153;50.960;6.220;2023-02-28T00:24:52;101919.50;;;3.35;52.82
50268;BME280;36153;50.960;6.220;2023-02-28T00:27:53;101917.81;;;3.35;52.84
50268;BME280;36153;50.960;6.220;2023-02-28T00:30:55;101919.22;;;3.30;52.85
50268;BME280;36153;50.960;6.220;2023-02-28T00:33:58;101921.59;;;3.27;52.83
50268;BME280;36153;50.960;6.220;2023-02-28T00:37:00;101923.88;;;3.36;52.50
50268;BME280;36153;50.960;6.220;2023-02-28T00:40:01;101928.22;;;3.37;52.59
50268;BME280;36153;50.960;6.220;2023-02-28T00:43:04;101925.44;;;3.34;52.84
50268;BME280;36153;50.960;6.220;2023-02-28T00:46:05;101921.28;;;3.36;52.33
50268;BME280;36153;50.960;6.220;2023-02-28T00:49:05;101926.22;;;3.46;52.16
50268;BME280;36153;50.960;6.220;2023-02-28T00:52:06;101919.78;;;3.39;52.28
50268;BME280;36153;50.960;6.220;2023-02-28T00:55:06;101921.75;;;3.44;52.20
50268;BME280;36153;50.960;6.220;2023-02-28T00:58:07;101928.78;;;3.46;52.13
50268;BME280;36153;50.960;6.220;2023-02-28T01:01:07;101925.84;;;3.40;51.81
50268;BME280;36153;50.960;6.220;2023-02-28T01:04:08;101936.16;;;3.40;52.13
50268;BME280;36153;50.960;6.220;2023-02-28T01:07:08;101934.16;;;3.36;51.95
50268;BME280;36153;50.960;6.220;2023-02-28T01:10:09;101937.72;;;3.38;52.04
50268;BME280;36153;50.960;6.220;2023-02-28T01:13:10;101936.16;;;3.40;51.88
50268;BME280;36153;50.960;6.220;2023-02-28T01:16:11;101934.94;;;3.35;51.77
50268;BME280;36153;50.960;6.220;2023-02-28T01:19:11;101935.44;;;3.29;52.06
50268;BME280;36153;50.960;6.220;2023-02-28T01:22:12;101936.22;;;3.28;51.92
50268;BME280;36153;50.960;6.220;2023-02-28T01:25:12;101943.66;;;3.23;51.90
50268;BME280;36153;50.960;6.220;2023-02-28T01:28:13;101940.81;;;3.19;52.22
50268;BME280;36153;50.960;6.220;2023-02-28T01:31:14;101936.34;;;3.16;52.16
50268;BME280;36153;50.960;6.220;2023-02-28T01:34:14;101939.63;;;3.14;52.30
50268;BME280;36153;50.960;6.220;2023-02-28T01:37:15;101939.91;;;3.18;52.09
50268;BME280;36153;50.960;6.220;2023-02-28T01:40:15;101940.59;;;3.16;52.21
50268;BME280;36153;50.960;6.220;2023-02-28T01:43:27;101939.03;;;3.18;52.18
50268;BME280;36153;50.960;6.220;2023-02-28T01:46:28;101937.91;;;3.14;52.28
50268;BME280;36153;50.960;6.220;2023-02-28T01:49:28;101930.88;;;3.12;52.13
50268;BME280;36153;50.960;6.220;2023-02-28T01:52:30;101939.69;;;3.02;52.45
50268;BME280;36153;50.960;6.220;2023-02-28T01:55:31;101931.88;;;2.87;52.52
50268;BME280;36153;50.960;6.220;2023-02-28T01:58:33;101932.66;;;2.86;52.79
50268;BME280;36153;50.960;6.220;2023-02-28T02:01:34;101934.44;;;2.73;53.12
50268;BME280;36153;50.960;6.220;2023-02-28T02:04:41;101927.72;;;2.76;53.52
50268;BME280;36153;50.960;6.220;2023-02-28T02:07:46;101920.59;;;2.71;53.50
50268;BME280;36153;50.960;6.220;2023-02-28T02:10:56;101924.81;;;2.71;53.59
50268;BME280;36153;50.960;6.220;2023-02-28T02:14:10;101923.75;;;2.67;53.80
50268;BME280;36153;50.960;6.220;2023-02-28T02:17:32;101914.16;;;2.65;53.89
50268;BME280;36153;50.960;6.220;2023-02-28T02:24:26;101909.00;;;2.65;54.04
50268;BME280;36153;50.960;6.220;2023-02-28T02:27:56;101908.09;;;2.64;53.99
50268;BME280;36153;50.960;6.220;2023-02-28T02:31:12;101906.63;;;2.68;53.96
50268;BME280;36153;50.960;6.220;2023-02-28T02:34:30;101899.31;;;2.74;53.41
50268;BME280;36153;50.960;6.220;2023-02-28T02:40:47;101901.59;;;2.96;53.62
50268;BME280;36153;50.960;6.220;2023-02-28T02:43:53;101893.69;;;3.20;53.06
50268;BME280;36153;50.960;6.220;2023-02-28T02:46:58;101892.19;;;3.37;52.72
50268;BME280;36153;50.960;6.220;2023-02-28T02:50:03;101891.59;;;3.41;52.54
50268;BME280;36153;50.960;6.220;2023-02-28T02:53:07;101895.84;;;3.40;52.25
50268;BME280;36153;50.960;6.220;2023-02-28T02:56:09;101889.03;;;3.41;52.18
50268;BME280;36153;50.960;6.220;2023-02-28T02:59:13;101893.53;;;3.45;52.10
50268;BME280;36153;50.960;6.220;2023-02-28T03:02:16;101889.31;;;3.46;51.80
50268;BME280;36153;50.960;6.220;2023-02-28T03:05:21;101901.50;;;3.35;52.12
50268;BME280;36153;50.960;6.220;2023-02-28T03:08:24;101900.72;;;3.22;52.16
50268;BME280;36153;50.960;6.220;2023-02-28T03:11:25;101895.78;;;3.12;52.46
50268;BME280;36153;50.960;6.220;2023-02-28T03:14:40;101901.31;;;3.05;52.53
50268;BME280;36153;50.960;6.220;2023-02-28T03:18:04;101898.84;;;2.93;53.16
50268;BME280;36153;50.960;6.220;2023-02-28T03:28:08;101902.94;;;2.51;54.59
50268;BME280;36153;50.960;6.220;2023-02-28T03:31:19;101897.38;;;2.45;55.07
50268;BME280;36153;50.960;6.220;2023-02-28T03:34:37;101898.06;;;2.42;55.44
50268;BME280;36153;50.960;6.220;2023-02-28T03:37:42;101896.88;;;2.37;55.52
50268;BME280;36153;50.960;6.220;2023-02-28T03:40:51;101898.13;;;2.30;55.99
50268;BME280;36153;50.960;6.220;2023-02-28T03:43:58;101895.56;;;2.30;55.77
50268;BME280;36153;50.960;6.220;2023-02-28T03:47:08;101890.81;;;2.23;56.11
50268;BME280;36153;50.960;6.220;2023-02-28T03:50:16;101878.53;;;2.19;56.05
50268;BME280;36153;50.960;6.220;2023-02-28T03:53:37;101885.34;;;2.18;56.31
50268;BME280;36153;50.960;6.220;2023-02-28T03:56:43;101878.91;;;2.12;56.15
50268;BME280;36153;50.960;6.220;2023-02-28T03:59:52;101884.28;;;2.03;56.59
50268;BME280;36153;50.960;6.220;2023-02-28T04:02:57;101887.25;;;1.96;56.65
50268;BME280;36153;50.960;6.220;2023-02-28T04:05:57;101894.53;;;1.90;56.92
50268;BME280;36153;50.960;6.220;2023-02-28T04:08:58;101895.50;;;1.92;56.95
50268;BME280;36153;50.960;6.220;2023-02-28T04:11:59;101899.09;;;1.94;57.29
50268;BME280;36153;50.960;6.220;2023-02-28T04:15:00;101903.00;;;1.88;57.29
50268;BME280;36153;50.960;6.220;2023-02-28T04:18:00;101897.22;;;1.79;57.33
50268;BME280;36153;50.960;6.220;2023-02-28T04:21:00;101901.75;;;1.70;57.73
50268;BME280;36153;50.960;6.220;2023-02-28T04:24:02;101905.03;;;1.81;57.67
50268;BME280;36153;50.960;6.220;2023-02-28T04:27:03;101901.38;;;1.77;57.58
50268;BME280;36153;50.960;6.220;2023-02-28T04:30:03;101912.13;;;1.72;58.02
50268;BME280;36153;50.960;6.220;2023-02-28T04:33:04;101907.50;;;1.79;58.15
50268;BME280;36153;50.960;6.220;2023-02-28T04:36:07;101915.84;;;1.88;58.09
50268;BME280;36153;50.960;6.220;2023-02-28T04:39:08;101906.44;;;2.01;58.07
50268;BME280;36153;50.960;6.220;2023-02-28T04:42:10;101914.78;;;2.10;57.99
50268;BME280;36153;50.960;6.220;2023-02-28T04:45:11;101916.41;;;2.21;57.85
50268;BME280;36153;50.960;6.220;2023-02-28T04:48:11;101917.19;;;2.20;58.00
50268;BME280;36153;50.960;6.220;2023-02-28T04:51:14;101917.38;;;2.24;57.74
50268;BME280;36153;50.960;6.220;2023-02-28T04:54:14;101916.16;;;2.18;57.37
50268;BME280;36153;50.960;6.220;2023-02-28T04:57:16;101923.88;;;2.18;57.76
50268;BME280;36153;50.960;6.220;2023-02-28T05:00:16;101925.84;;;2.09;57.62
50268;BME280;36153;50.960;6.220;2023-02-28T05:03:17;101926.31;;;2.03;57.86
50268;BME280;36153;50.960;6.220;2023-02-28T05:06:18;101925.66;;;1.94;57.82
50268;BME280;36153;50.960;6.220;2023-02-28T05:09:20;101928.31;;;1.96;58.08
50268;BME280;36153;50.960;6.220;2023-02-28T05:12:20;101922.22;;;1.94;58.18
50268;BME280;36153;50.960;6.220;2023-02-28T05:15:20;101922.69;;;1.88;58.02
50268;BME280;36153;50.960;6.220;2023-02-28T05:18:21;101925.91;;;1.85;58.18
50268;BME280;36153;50.960;6.220;2023-02-28T05:21:38;101918.00;;;1.82;57.79
50268;BME280;36153;50.960;6.220;2023-02-28T05:24:39;101916.78;;;1.77;58.19
50268;BME280;36153;50.960;6.220;2023-02-28T05:27:39;101915.00;;;1.76;58.04
50268;BME280;36153;50.960;6.220;2023-02-28T05:30:40;101918.44;;;1.77;58.10
50268;BME280;36153;50.960;6.220;2023-02-28T05:33:40;101917.03;;;1.68;57.97
50268;BME280;36153;50.960;6.220;2023-02-28T05:36:41;101935.69;;;1.66;58.16
50268;BME280;36153;50.960;6.220;2023-02-28T05:39:42;101925.19;;;1.63;58.15
50268;BME280;36153;50.960;6.220;2023-02-28T05:42:42;101935.34;;;1.61;58.00
50268;BME280;36153;50.960;6.220;2023-02-28T05:45:43;101936.00;;;1.59;58.04
50268;BME280;36153;50.960;6.220;2023-02-28T05:48:47;101936.00;;;1.59;57.86
50268;BME280;36153;50.960;6.220;2023-02-28T05:51:47;101927.22;;;1.55;57.71
50268;BME280;36153;50.960;6.220;2023-02-28T05:54:48;101925.75;;;1.59;57.80
50268;BME280;36153;50.960;6.220;2023-02-28T05:57:48;101924.75;;;1.57;57.60
50268;BME280;36153;50.960;6.220;2023-02-28T06:00:49;101931.22;;;1.51;57.58
50268;BME280;36153;50.960;6.220;2023-02-28T06:03:49;101928.66;;;1.51;57.49
50268;BME280;36153;50.960;6.220;2023-02-28T06:06:50;101927.06;;;1.65;57.19
50268;BME280;36153;50.960;6.220;2023-02-28T06:09:50;101933.88;;;1.65;56.73
50268;BME280;36153;50.960;6.220;2023-02-28T06:12:51;101930.88;;;1.59;56.60
50268;BME280;36153;50.960;6.220;2023-02-28T06:15:52;101938.16;;;1.64;56.61
50268;BME280;36153;50.960;6.220;2023-02-28T06:18:52;101932.66;;;1.60;56.27
50268;BME280;36153;50.960;6.220;2023-02-28T06:21:54;101942.94;;;1.60;56.48
50268;BME280;36153;50.960;6.220;2023-02-28T06:24:54;101947.66;;;1.53;56.29
50268;BME280;36153;50.960;6.220;2023-02-28T06:27:57;101941.50;;;1.51;56.34
50268;BME280;36153;50.960;6.220;2023-02-28T06:30:57;101943.94;;;1.62;56.39
50268;BME280;36153;50.960;6.220;2023-02-28T06:33:58;101949.84;;;1.61;56.31
50268;BME280;36153;50.960;6.220;2023-02-28T06:36:58;101946.53;;;1.62;55.91
50268;BME280;36153;50.960;6.220;2023-02-28T06:40:02;101948.41;;;1.64;55.96
50268;BME280;36153;50.960;6.220;2023-02-28T06:43:03;101949.19;;;1.63;56.03
50268;BME280;36153;50.960;6.220;2023-02-28T06:46:06;101961.91;;;1.62;56.17
50268;BME280;36153;50.960;6.220;2023-02-28T06:49:07;101966.34;;;1.76;55.81
50268;BME280;36153;50.960;6.220;2023-02-28T06:52:08;101970.44;;;1.86;55.78
50268;BME280;36153;50.960;6.220;2023-02-28T06:55:10;101972.56;;;1.92;55.54
50268;BME280;36153;50.960;6.220;2023-02-28T06:58:10;101971.69;;;1.91;55.71
50268;BME280;36153;50.960;6.220;2023-02-28T07:01:19;101967.88;;;1.98;55.54
50268;BME280;36153;50.960;6.220;2023-02-28T07:04:23;101971.41;;;2.12;55.29
50268;BME280;36153;50.960;6.220;2023-02-28T07:07:31;101969.13;;;2.16;54.77
50268;BME280;36153;50.960;6.220;2023-02-28T07:10:36;101973.59;;;2.19;54.65
50268;BME280;36153;50.960;6.220;2023-02-28T07:14:01;101979.50;;;2.30;54.62
50268;BME280;36153;50.960;6.220;2023-02-28T07:17:10;101974.91;;;2.26;54.69
50268;BME280;36153;50.960;6.220;2023-02-28T07:24:04;101992.00;;;2.50;54.32
50268;BME280;36153;50.960;6.220;2023-02-28T07:27:05;101995.59;;;2.52;53.98
50268;BME280;36153;50.960;6.220;2023-02-28T07:30:07;101992.16;;;2.65;53.67
50268;BME280;36153;50.960;6.220;2023-02-28T07:33:08;101980.31;;;2.81;53.44
50268;BME280;36153;50.960;6.220;2023-02-28T09:09:13;101996.19;;;5.55;42.82
50268;BME280;36153;50.960;6.220;2023-02-28T09:12:14;102003.19;;;5.73;41.66
50268;BME280;36153;50.960;6.220;2023-02-28T09:15:14;101991.16;;;5.73;41.67
50268;BME280;36153;50.960;6.220;2023-02-28T09:18:15;101986.38;;;5.96;40.03
50268;BME280;36153;50.960;6.220;2023-02-28T09:21:17;101985.91;;;6.03;40.27
50268;BME280;36153;50.960;6.220;2023-02-28T09:24:18;101986.66;;;6.17;39.25
50268;BME280;36153;50.960;6.220;2023-02-28T09:27:20;101983.50;;;6.23;38.52
50268;BME280;36153;50.960;6.220;2023-02-28T09:30:20;101974.03;;;6.23;37.55
50268;BME280;36153;50.960;6.220;2023-02-28T09:33:21;101975.44;;;6.17;36.53
50268;BME280;36153;50.960;6.220;2023-02-28T09:36:23;101974.75;;;6.21;37.08
50268;BME280;36153;50.960;6.220;2023-02-28T09:39:24;101977.03;;;6.31;36.71
50268;BME280;36153;50.960;6.220;2023-02-28T09:42:33;101972.38;;;6.24;35.82
50268;BME280;36153;50.960;6.220;2023-02-28T09:45:36;101971.59;;;6.43;36.35
50268;BME280;36153;50.960;6.220;2023-02-28T09:48:39;101968.34;;;6.63;36.21
50268;BME280;36153;50.960;6.220;2023-02-28T09:54:44;101966.91;;;7.03;36.46
50268;BME280;36153;50.960;6.220;2023-02-28T09:57:44;101968.59;;;7.03;35.81
50268;BME280;36153;50.960;6.220;2023-02-28T10:00:59;101971.09;;;7.01;35.95
50268;BME280;36153;50.960;6.220;2023-02-28T10:04:08;101965.31;;;6.89;33.32
50268;BME280;36153;50.960;6.220;2023-02-28T10:07:42;101965.88;;;7.35;34.84
50268;BME280;36153;50.960;6.220;2023-02-28T10:10:50;101968.06;;;7.46;34.71
50268;BME280;36153;50.960;6.220;2023-02-28T10:13:58;101965.13;;;7.20;33.32
50268;BME280;36153;50.960;6.220;2023-02-28T10:17:12;101974.09;;;7.45;35.55
50268;BME280;36153;50.960;6.220;2023-02-28T10:20:19;101979.09;;;7.60;34.31
50268;BME280;36153;50.960;6.220;2023-02-28T10:26:26;101967.34;;;7.12;32.71
50268;BME280;36153;50.960;6.220;2023-02-28T10:29:31;101972.97;;;7.22;35.06
50268;BME280;36153;50.960;6.220;2023-02-28T10:32:34;101964.34;;;7.21;34.70
50268;BME280;36153;50.960;6.220;2023-02-28T10:35:35;101971.09;;;7.73;35.13
50268;BME280;36153;50.960;6.220;2023-02-28T10:42:39;101973.72;;;7.93;33.34
50268;BME280;36153;50.960;6.220;2023-02-28T10:45:53;101972.44;;;7.65;34.12
50268;BME280;36153;50.960;6.220;2023-02-28T10:49:02;101968.84;;;8.18;33.24
50268;BME280;36153;50.960;6.220;2023-02-28T10:52:09;101964.59;;;8.20;34.45
50268;BME280;36153;50.960;6.220;2023-02-28T10:55:22;101968.78;;;8.56;33.66
50268;BME280;36153;50.960;6.220;2023-02-28T10:58:24;101952.09;;;7.92;33.69
50268;BME280;36153;50.960;6.220;2023-02-28T11:04:36;101954.56;;;8.28;34.44
50268;BME280;36153;50.960;6.220;2023-02-28T11:07:43;101956.50;;;8.52;33.52
50268;BME280;36153;50.960;6.220;2023-02-28T11:10:55;101945.00;;;8.66;31.48
50268;BME280;36153;50.960;6.220;2023-02-28T11:14:25;101946.38;;;9.00;33.75
50268;BME280;36153;50.960;6.220;2023-02-28T11:17:30;101945.81;;;8.65;33.25
50268;BME280;36153;50.960;6.220;2023-02-28T11:20:32;101946.28;;;8.76;33.30
50268;BME280;36153;50.960;6.220;2023-02-28T11:23:35;101939.38;;;8.98;33.28
50268;BME280;36153;50.960;6.220;2023-02-28T11:26:46;101931.69;;;9.45;31.68
50268;BME280;36153;50.960;6.220;2023-02-28T11:29:47;101940.78;;;9.33;33.26
50268;BME280;36153;50.960;6.220;2023-02-28T11:32:48;101932.34;;;9.39;32.10
50268;BME280;36153;50.960;6.220;2023-02-28T11:35:51;101931.03;;;9.28;31.10
50268;BME280;36153;50.960;6.220;2023-02-28T11:38:58;101928.53;;;9.74;32.52
50268;BME280;36153;50.960;6.220;2023-02-28T11:42:37;101933.38;;;10.12;32.13
50268;BME280;36153;50.960;6.220;2023-02-28T11:45:56;101925.69;;;9.91;29.60
50268;BME280;36153;50.960;6.220;2023-02-28T11:49:28;101938.84;;;9.96;31.54
50268;BME280;36153;50.960;6.220;2023-02-28T11:52:46;101934.41;;;9.93;32.04
50268;BME280;36153;50.960;6.220;2023-02-28T11:55:57;101928.63;;;9.78;31.23
50268;BME280;36153;50.960;6.220;2023-02-28T12:02:29;101929.47;;;9.54;31.05
50268;BME280;36153;50.960;6.220;2023-02-28T12:15:34;101936.91;;;10.37;30.20
50268;BME280;36153;50.960;6.220;2023-02-28T12:25:22;101917.97;;;10.18;29.98
50268;BME280;36153;50.960;6.220;2023-02-28T12:28:30;101916.34;;;9.73;30.46
50268;BME280;36153;50.960;6.220;2023-02-28T12:31:38;101922.75;;;9.59;30.70
50268;BME280;36153;50.960;6.220;2023-02-28T12:34:54;101917.72;;;9.88;31.25
50268;BME280;36153;50.960;6.220;2023-02-28T12:38:01;101915.94;;;9.85;32.30
50268;BME280;36153;50.960;6.220;2023-02-28T12:41:05;101909.31;;;9.48;31.66
50268;BME280;36153;50.960;6.220;2023-02-28T12:47:40;101906.13;;;9.55;31.52
50268;BME280;36153;50.960;6.220;2023-02-28T12:50:42;101898.81;;;9.92;31.89
50268;BME280;36153;50.960;6.220;2023-02-28T13:00:02;101890.13;;;9.45;32.14
50268;BME280;36153;50.960;6.220;2023-02-28T13:09:59;101878.59;;;9.61;32.00
50268;BME280;36153;50.960;6.220;2023-02-28T13:13:02;101867.47;;;9.42;31.69
50268;BME280;36153;50.960;6.220;2023-02-28T13:16:07;101858.56;;;9.82;32.02
50268;BME280;36153;50.960;6.220;2023-02-28T13:19:08;101864.72;;;9.37;30.60
50268;BME280;36153;50.960;6.220;2023-02-28T13:22:44;101864.84;;;9.40;31.92
50268;BME280;36153;50.960;6.220;2023-02-28T13:38:15;101851.72;;;9.84;31.98
50268;BME280;36153;50.960;6.220;2023-02-28T13:44:29;101855.66;;;9.97;31.83
50268;BME280;36153;50.960;6.220;2023-02-28T13:50:39;101861.72;;;10.22;31.99
50268;BME280;36153;50.960;6.220;2023-02-28T13:53:56;101849.38;;;10.40;31.45
50268;BME280;36153;50.960;6.220;2023-02-28T13:57:27;101849.31;;;10.65;29.55
50268;BME280;36153;50.960;6.220;2023-02-28T14:04:14;101850.25;;;9.91;30.54
50268;BME280;36153;50.960;6.220;2023-02-28T14:07:28;101844.59;;;9.79;31.41
50268;BME280;36153;50.960;6.220;2023-02-28T14:10:34;101843.28;;;10.16;30.32
50268;BME280;36153;50.960;6.220;2023-02-28T14:13:43;101837.91;;;10.61;29.95
50268;BME280;36153;50.960;6.220;2023-02-28T14:16:47;101825.78;;;10.36;30.31
50268;BME280;36153;50.960;6.220;2023-02-28T14:19:50;101816.94;;;10.56;30.32
50268;BME280;36153;50.960;6.220;2023-02-28T14:26:14;101820.16;;;10.76;29.69
50268;BME280;36153;50.960;6.220;2023-02-28T14:36:21;101817.72;;;10.54;30.61
50268;BME280;36153;50.960;6.220;2023-02-28T14:39:25;101823.16;;;10.89;30.80
50268;BME280;36153;50.960;6.220;2023-02-28T14:42:32;101813.09;;;10.72;31.41
50268;BME280;36153;50.960;6.220;2023-02-28T14:45:35;101815.38;;;10.36;31.35
50268;BME280;36153;50.960;6.220;2023-02-28T14:48:37;101811.97;;;10.37;30.81
50268;BME280;36153;50.960;6.220;2023-02-28T14:51:38;101805.31;;;10.21;30.54
50268;BME280;36153;50.960;6.220;2023-02-28T14:54:39;101803.78;;;10.53;30.90
50268;BME280;36153;50.960;6.220;2023-02-28T14:57:50;101805.53;;;10.27;30.18
50268;BME280;36153;50.960;6.220;2023-02-28T15:00:51;101802.59;;;10.44;30.70
50268;BME280;36153;50.960;6.220;2023-02-28T15:03:59;101799.56;;;10.57;30.36
50268;BME280;36153;50.960;6.220;2023-02-28T15:07:13;101808.22;;;10.56;30.72
50268;BME280;36153;50.960;6.220;2023-02-28T15:10:25;101799.19;;;10.19;30.27
50268;BME280;36153;50.960;6.220;2023-02-28T15:14:14;101795.38;;;10.35;30.83
50268;BME280;36153;50.960;6.220;2023-02-28T15:17:14;101798.38;;;9.96;30.22
50268;BME280;36153;50.960;6.220;2023-02-28T15:20:20;101804.78;;;10.05;30.78
50268;BME280;36153;50.960;6.220;2023-02-28T15:23:22;101787.09;;;9.95;30.99
50268;BME280;36153;50.960;6.220;2023-02-28T15:26:27;101792.16;;;10.16;30.89
50268;BME280;36153;50.960;6.220;2023-02-28T15:29:34;101789.69;;;10.21;30.25
50268;BME280;36153;50.960;6.220;2023-02-28T15:32:38;101786.66;;;10.08;29.95
50268;BME280;36153;50.960;6.220;2023-02-28T15:35:39;101791.66;;;10.02;30.87
50268;BME280;36153;50.960;6.220;2023-02-28T15:38:41;101784.16;;;10.12;31.63
50268;BME280;36153;50.960;6.220;2023-02-28T15:41:42;101794.03;;;10.20;32.09
50268;BME280;36153;50.960;6.220;2023-02-28T15:44:42;101785.13;;;10.14;32.17
50268;BME280;36153;50.960;6.220;2023-02-28T15:47:45;101787.09;;;9.95;32.50
50268;BME280;36153;50.960;6.220;2023-02-28T15:51:19;101791.09;;;10.11;33.29
50268;BME280;36153;50.960;6.220;2023-02-28T15:54:24;101787.72;;;10.14;32.72
50268;BME280;36153;50.960;6.220;2023-02-28T15:57:28;101800.97;;;10.21;31.58
50268;BME280;36153;50.960;6.220;2023-02-28T16:00:30;101795.38;;;10.35;31.71
50268;BME280;36153;50.960;6.220;2023-02-28T16:03:39;101796.56;;;10.19;32.38
50268;BME280;36153;50.960;6.220;2023-02-28T16:06:41;101795.63;;;10.17;32.64
50268;BME280;36153;50.960;6.220;2023-02-28T16:09:42;101793.22;;;9.97;32.70
50268;BME280;36153;50.960;6.220;2023-02-28T16:12:42;101793.00;;;9.67;33.75
50268;BME280;36153;50.960;6.220;2023-02-28T16:15:43;101797.00;;;9.57;34.62
50268;BME280;36153;50.960;6.220;2023-02-28T16:18:43;101812.19;;;9.46;34.11
50268;BME280;36153;50.960;6.220;2023-02-28T16:21:44;101807.66;;;9.40;34.56
50268;BME280;36153;50.960;6.220;2023-02-28T16:24:45;101815.94;;;9.30;34.64
50268;BME280;36153;50.960;6.220;2023-02-28T16:27:48;101818.28;;;9.24;35.62
50268;BME280;36153;50.960;6.220;2023-02-28T16:30:53;101822.50;;;8.98;35.17
50268;BME280;36153;50.960;6.220;2023-02-28T16:33:53;101814.88;;;9.02;36.20
50268;BME280;36153;50.960;6.220;2023-02-28T16:36:54;101811.09;;;8.71;35.16
50268;BME280;36153;50.960;6.220;2023-02-28T16:39:54;101816.41;;;8.75;35.86
50268;BME280;36153;50.960;6.220;2023-02-28T16:42:58;101823.50;;;8.58;36.69
50268;BME280;36153;50.960;6.220;2023-02-28T16:45:59;101827.97;;;8.41;37.03
50268;BME280;36153;50.960;6.220;2023-02-28T16:49:01;101831.22;;;8.15;37.93
50268;BME280;36153;50.960;6.220;2023-02-28T16:52:01;101825.88;;;7.91;37.84
50268;BME280;36153;50.960;6.220;2023-02-28T16:55:02;101822.72;;;7.79;38.11
50268;BME280;36153;50.960;6.220;2023-02-28T16:58:03;101827.91;;;7.59;38.44
50268;BME280;36153;50.960;6.220;2023-02-28T17:01:03;101831.00;;;7.50;38.93
50268;BME280;36153;50.960;6.220;2023-02-28T17:04:04;101831.09;;;7.34;38.87
50268;BME280;36153;50.960;6.220;2023-02-28T17:07:04;101836.44;;;7.19;39.77
50268;BME280;36153;50.960;6.220;2023-02-28T17:10:25;101833.06;;;7.02;40.53
50268;BME280;36153;50.960;6.220;2023-02-28T17:13:26;101837.59;;;6.88;40.39
50268;BME280;36153;50.960;6.220;2023-02-28T17:16:31;101849.13;;;6.77;40.38
50268;BME280;36153;50.960;6.220;2023-02-28T17:19:33;101849.78;;;6.73;40.78
50268;BME280;36153;50.960;6.220;2023-02-28T17:22:34;101855.31;;;6.62;41.12
50268;BME280;36153;50.960;6.220;2023-02-28T17:25:35;101857.31;;;6.50;41.34
50268;BME280;36153;50.960;6.220;2023-02-28T17:28:35;101863.81;;;6.42;41.31
50268;BME280;36153;50.960;6.220;2023-02-28T17:31:35;101863.47;;;6.36;41.80
50268;BME280;36153;50.960;6.220;2023-02-28T17:34:38;101872.03;;;6.35;41.77
50268;BME280;36153;50.960;6.220;2023-02-28T17:37:39;101875.06;;;6.09;42.02
50268;BME280;36153;50.960;6.220;2023-02-28T17:40:39;101882.91;;;6.11;42.30
50268;BME280;36153;50.960;6.220;2023-02-28T17:43:40;101880.56;;;5.99;42.68
50268;BME280;36153;50.960;6.220;2023-02-28T17:46:41;101888.88;;;5.93;42.77
50268;BME280;36153;50.960;6.220;2023-02-28T17:49:42;101890.00;;;5.82;43.20
50268;BME280;36153;50.960;6.220;2023-02-28T17:52:42;101890.22;;;5.70;43.50
50268;BME280;36153;50.960;6.220;2023-02-28T17:55:43;101887.25;;;5.62;44.19
50268;BME280;36153;50.960;6.220;2023-02-28T17:58:43;101891.75;;;5.50;44.50
50268;BME280;36153;50.960;6.220;2023-02-28T18:01:44;101888.88;;;5.45;44.63
50268;BME280;36153;50.960;6.220;2023-02-28T18:04:44;101886.44;;;5.32;45.10
50268;BME280;36153;50.960;6.220;2023-02-28T18:07:45;101894.19;;;5.32;45.34
50268;BME280;36153;50.960;6.220;2023-02-28T18:10:45;101888.47;;;5.38;45.04
50268;BME280;36153;50.960;6.220;2023-02-28T18:13:51;101902.19;;;5.37;45.10
50268;BME280;36153;50.960;6.220;2023-02-28T18:16:53;101894.13;;;5.30;45.06
50268;BME280;36153;50.960;6.220;2023-02-28T18:19:54;101904.28;;;5.27;45.22
50268;BME280;36153;50.960;6.220;2023-02-28T18:22:54;101897.53;;;5.15;45.78
50268;BME280;36153;50.960;6.220;2023-02-28T18:25:55;101894.47;;;5.22;45.75
50268;BME280;36153;50.960;6.220;2023-02-28T18:28:55;101894.28;;;5.34;45.43
50268;BME280;36153;50.960;6.220;2023-02-28T18:31:56;101897.66;;;5.33;45.45
50268;BME280;36153;50.960;6.220;2023-02-28T18:34:56;101894.75;;;5.26;45.35
50268;BME280;36153;50.960;6.220;2023-02-28T18:37:56;101893.75;;;5.24;45.94
50268;BME280;36153;50.960;6.220;2023-02-28T18:40:59;101896.88;;;5.19;45.88
50268;BME280;36153;50.960;6.220;2023-02-28T18:44:00;101892.91;;;5.09;46.33
50268;BME280;36153;50.960;6.220;2023-02-28T18:47:04;101887.56;;;5.06;46.34
50268;BME280;36153;50.960;6.220;2023-02-28T18:50:04;101892.91;;;5.09;46.17
50268;BME280;36153;50.960;6.220;2023-02-28T18:53:05;101893.06;;;5.12;46.12
50268;BME280;36153;50.960;6.220;2023-02-28T18:56:07;101896.91;;;5.04;46.42
50268;BME280;36153;50.960;6.220;2023-02-28T18:59:07;101900.66;;;4.94;46.79
50268;BME280;36153;50.960;6.220;2023-02-28T19:02:08;101895.97;;;4.87;47.01
50268;BME280;36153;50.960;6.220;2023-02-28T19:05:09;101908.78;;;4.85;47.14
50268;BME280;36153;50.960;6.220;2023-02-28T19:08:11;101906.81;;;4.81;47.13
50268;BME280;36153;50.960;6.220;2023-02-28T19:11:15;101908.59;;;4.82;47.04
50268;BME280;36153;50.960;6.220;2023-02-28T19:14:15;101908.59;;;4.82;46.91
50268;BME280;36153;50.960;6.220;2023-02-28T19:17:16;101908.59;;;4.82;46.95
50268;BME280;36153;50.960;6.220;2023-02-28T19:20:16;101903.28;;;4.79;47.00
50268;BME280;36153;50.960;6.220;2023-02-28T19:23:16;101908.44;;;4.79;46.72
50268;BME280;36153;50.960;6.220;2023-02-28T19:26:21;101906.44;;;4.90;46.61
50268;BME280;36153;50.960;6.220;2023-02-28T19:29:21;101903.00;;;4.89;46.77